createdAt,value
2023-03-14T02:00:39.173Z,1.20
2023-03-14T02:01:39.145Z,1.20
2023-03-14T02:02:39.132Z,1.20
2023-03-14T02:03:39.230Z,1.10
2023-03-14T02:05:25.877Z,1.39
2023-03-14T02:06:26.074Z,1.39
2023-03-14T02:07:25.847Z,1.20
2023-03-14T02:08:25.859Z,1.39
2023-03-14T02:09:26.039Z,1.29
2023-03-14T02:10:25.864Z,1.29
2023-03-14T02:11:25.813Z,2.20
2023-03-14T02:13:25.783Z,1.10
2023-03-14T02:14:25.781Z,1.29
2023-03-14T02:15:25.769Z,1.10
2023-03-14T02:16:25.837Z,1.20
2023-03-14T02:17:25.740Z,1.29
2023-03-14T02:18:25.934Z,1.00
2023-03-14T02:19:25.720Z,1.00
2023-03-14T02:22:31.702Z,1.10
2023-03-14T02:23:25.671Z,1.00
2023-03-14T02:24:25.671Z,1.60
2023-03-14T02:25:25.657Z,1.10
2023-03-14T02:26:31.655Z,1.10
2023-03-14T02:27:25.640Z,1.20
2023-03-14T02:28:25.633Z,1.29
2023-03-14T02:29:25.615Z,1.29
2023-03-14T02:32:25.638Z,1.00
2023-03-14T02:34:25.768Z,1.00
2023-03-14T02:36:12.503Z,1.70
2023-03-14T02:37:12.420Z,1.60
2023-03-14T02:41:12.578Z,1.10
2023-03-14T02:42:18.374Z,1.00
2023-03-14T02:43:12.367Z,1.29
2023-03-14T02:44:12.340Z,1.20
2023-03-14T02:45:12.332Z,1.20
2023-03-14T02:46:18.349Z,1.20
2023-03-14T02:47:12.522Z,1.00
2023-03-14T02:48:12.317Z,1.10
2023-03-14T02:49:18.513Z,1.20
2023-03-14T02:50:12.274Z,1.00
2023-03-14T02:51:18.286Z,1.10
2023-03-14T02:52:12.254Z,1.10
2023-03-14T02:53:12.252Z,1.00
2023-03-14T02:54:12.441Z,1.20
2023-03-14T02:55:12.237Z,1.20
2023-03-14T02:56:12.228Z,1.39
2023-03-14T02:57:12.209Z,1.00
2023-03-14T02:58:12.596Z,1.20
2023-03-14T02:59:18.201Z,1.10
2023-03-14T03:03:12.191Z,1.00
2023-03-14T03:04:12.145Z,1.00
2023-03-14T03:05:12.130Z,1.00
2023-03-14T03:06:12.110Z,1.00
2023-03-14T03:07:54.917Z,1.10
2023-03-14T03:09:00.910Z,1.00
2023-03-14T03:09:54.910Z,1.00
2023-03-14T03:10:54.891Z,1.00
2023-03-14T03:11:54.876Z,1.00
2023-03-14T03:16:54.893Z,1.00
2023-03-14T03:17:54.815Z,1.10
2023-03-14T03:18:54.990Z,1.29
2023-03-14T03:20:01.015Z,1.10
2023-03-14T03:22:54.768Z,1.00
2023-03-14T03:24:00.767Z,1.10
2023-03-14T03:25:54.735Z,1.00
2023-03-14T03:26:54.720Z,1.00
2023-03-14T03:27:54.713Z,1.00
2023-03-14T03:28:54.697Z,1.39
2023-03-14T03:29:54.699Z,1.00
2023-03-14T03:30:54.743Z,1.20
2023-03-14T03:33:56.708Z,1.29
2023-03-14T03:35:54.924Z,1.29
2023-03-14T03:36:54.628Z,1.39
2023-03-14T03:39:54.581Z,1.20
2023-03-14T03:40:54.578Z,1.29
2023-03-14T03:43:54.545Z,1.00
2023-03-14T03:46:54.514Z,1.10
2023-03-14T03:48:00.507Z,1.50
2023-03-14T03:48:54.493Z,1.00
2023-03-14T03:54:54.439Z,1.00
2023-03-14T03:57:54.592Z,1.10
2023-03-14T03:58:54.410Z,1.20
2023-03-14T03:59:54.364Z,1.00
2023-03-14T04:02:54.419Z,1.10
2023-03-14T04:03:54.380Z,1.20
2023-03-14T04:05:02.324Z,1.10
2023-03-14T04:05:54.504Z,1.20
2023-03-14T04:07:54.513Z,1.20
2023-03-14T04:08:54.281Z,1.20
2023-03-14T04:09:54.265Z,1.39
2023-03-14T04:11:00.271Z,1.20
2023-03-14T04:11:54.237Z,1.10
2023-03-14T04:12:54.243Z,1.20
2023-03-14T04:13:54.423Z,1.29
2023-03-14T04:14:54.226Z,1.00
2023-03-14T04:15:54.235Z,1.00
2023-03-14T04:16:54.207Z,1.20
2023-03-14T04:17:54.175Z,1.20
2023-03-14T04:18:54.188Z,1.10
2023-03-14T04:19:54.150Z,1.90
2023-03-14T04:21:00.163Z,1.70
2023-03-14T04:22:00.152Z,1.10
2023-03-14T04:22:54.139Z,1.29
2023-03-14T04:23:54.183Z,2.09
2023-03-14T04:24:54.399Z,1.00
2023-03-14T04:26:38.909Z,1.20
2023-03-14T04:27:32.894Z,1.10
2023-03-14T04:28:33.089Z,1.29
2023-03-14T04:29:32.875Z,1.29
2023-03-14T04:32:32.858Z,1.00
2023-03-14T04:37:38.751Z,1.00
2023-03-14T04:38:38.527Z,1.10
2023-03-14T04:41:38.514Z,1.00
2023-03-14T04:43:38.702Z,1.20
2023-03-14T04:44:44.670Z,1.10
2023-03-14T04:47:38.440Z,1.50
2023-03-14T04:50:44.409Z,1.29
2023-03-14T05:55:20.480Z,0.10
2023-03-14T05:56:20.483Z,0.10
2023-03-14T05:57:20.467Z,0.10
2023-03-14T05:58:20.493Z,0.10
2023-03-14T05:59:20.473Z,0.10
2023-03-14T06:00:20.453Z,0.10
2023-03-14T06:01:20.416Z,0.10
2023-03-14T06:02:20.441Z,0.10
2023-03-14T06:03:20.507Z,0.10
2023-03-14T06:04:20.396Z,0.10
2023-03-14T06:05:20.388Z,0.10
2023-03-14T06:06:20.575Z,0.10
2023-03-14T06:07:20.356Z,0.10
2023-03-14T06:08:20.354Z,0.10
2023-03-14T06:09:20.533Z,0.10
2023-03-14T06:10:20.325Z,0.10
2023-03-14T06:11:20.316Z,0.10
2023-03-14T06:12:20.318Z,0.10
2023-03-14T06:13:20.300Z,0.10
2023-03-14T06:14:20.285Z,0.10
2023-03-14T06:15:26.309Z,0.10
2023-03-14T06:16:20.271Z,0.10
2023-03-14T06:17:22.540Z,0.10
2023-03-14T06:18:20.237Z,0.10
2023-03-14T06:19:20.238Z,0.10
2023-03-14T06:20:20.236Z,0.10
2023-03-14T06:21:20.209Z,0.10
2023-03-14T06:22:54.899Z,0.10
2023-03-14T06:23:55.088Z,0.10
2023-03-14T06:24:54.869Z,0.10
2023-03-14T06:25:54.876Z,0.10
2023-03-14T06:26:54.844Z,0.10
2023-03-14T06:27:54.838Z,0.10
2023-03-14T06:28:54.839Z,0.10
2023-03-14T06:29:54.821Z,0.10
2023-03-14T06:30:54.863Z,0.10
2023-03-14T06:31:54.801Z,0.10
2023-03-14T06:32:54.880Z,0.10
2023-03-14T06:33:54.795Z,0.10
2023-03-14T06:34:54.761Z,0.10
2023-03-14T06:35:54.831Z,0.10
2023-03-14T06:36:54.744Z,0.10
2023-03-14T06:37:54.742Z,0.10
2023-03-14T06:38:54.717Z,0.10
2023-03-14T06:39:54.717Z,0.10
2023-03-14T06:40:54.731Z,0.10
2023-03-14T06:41:54.908Z,0.10
2023-03-14T06:42:54.680Z,0.10
2023-03-14T06:44:00.684Z,0.10
2023-03-14T06:44:54.664Z,0.10
2023-03-14T06:45:54.713Z,0.10
2023-03-14T06:46:54.661Z,0.10
2023-03-14T06:47:54.633Z,0.10
2023-03-14T06:48:54.614Z,0.10
2023-03-14T06:49:54.636Z,0.10
2023-03-14T06:50:54.593Z,0.10
2023-03-14T06:51:54.599Z,0.10
2023-03-14T06:52:54.660Z,0.10
2023-03-14T06:54:00.575Z,0.10
2023-03-14T06:54:54.553Z,0.10
2023-03-14T06:55:54.572Z,0.10
2023-03-14T06:56:54.528Z,0.10
2023-03-14T06:58:00.543Z,0.10
2023-03-14T06:58:54.526Z,0.10
2023-03-14T06:59:54.518Z,0.10
2023-03-14T07:00:54.537Z,0.10
2023-03-14T07:01:54.580Z,0.10
2023-03-14T07:02:54.572Z,0.10
2023-03-14T07:04:00.754Z,0.10
2023-03-14T07:04:54.536Z,0.10
2023-03-14T07:05:54.456Z,0.10
2023-03-14T07:07:00.477Z,0.10
2023-03-14T07:07:54.638Z,0.20
2023-03-14T07:08:54.419Z,0.10
2023-03-14T07:09:54.794Z,0.10
2023-03-14T07:10:54.392Z,0.10
2023-03-14T07:11:54.374Z,0.10
2023-03-14T07:12:54.376Z,0.20
2023-03-14T07:14:00.367Z,0.10
2023-03-14T07:14:54.348Z,0.10
2023-03-14T07:15:54.406Z,0.10
2023-03-14T07:16:54.324Z,0.10
2023-03-14T07:17:54.311Z,0.10
2023-03-14T07:18:54.342Z,0.10
2023-03-14T07:19:54.291Z,0.10
2023-03-14T07:20:54.291Z,0.10
2023-03-14T07:21:54.267Z,0.10
2023-03-14T07:22:54.277Z,0.20
2023-03-14T07:23:54.269Z,0.10
2023-03-14T07:24:54.247Z,0.10
2023-03-14T07:25:54.223Z,0.20
2023-03-14T07:28:00.212Z,0.10
2023-03-14T07:28:54.205Z,0.10
2023-03-14T07:29:54.188Z,0.10
2023-03-14T07:30:54.224Z,0.20
2023-03-14T07:31:54.164Z,0.10
2023-03-14T07:32:54.197Z,0.10
2023-03-14T07:33:54.349Z,0.10
2023-03-14T07:35:28.865Z,0.10
2023-03-14T07:36:34.835Z,0.10
2023-03-14T07:37:28.804Z,0.10
2023-03-14T07:38:28.807Z,0.10
2023-03-14T07:39:28.804Z,0.10
2023-03-14T07:40:28.783Z,0.10
2023-03-14T07:41:28.763Z,0.10
2023-03-14T07:42:28.761Z,0.10
2023-03-14T07:43:28.746Z,0.10
2023-03-14T07:44:34.753Z,0.10
2023-03-14T07:45:28.728Z,0.10
2023-03-14T07:46:28.790Z,0.10
2023-03-14T07:47:28.704Z,0.10
2023-03-14T07:48:28.786Z,0.10
2023-03-14T07:49:34.897Z,0.10
2023-03-14T07:50:28.677Z,0.10
2023-03-14T07:51:28.781Z,0.10
2023-03-14T07:52:28.665Z,0.10
2023-03-14T07:53:28.641Z,0.10
2023-03-14T07:54:28.675Z,0.10
2023-03-14T07:55:28.619Z,0.10
2023-03-14T07:56:28.809Z,0.10
2023-03-14T07:57:28.709Z,0.10
2023-03-14T07:58:28.591Z,0.10
2023-03-14T07:59:28.588Z,0.10
2023-03-14T08:00:28.572Z,0.10
2023-03-14T08:01:28.552Z,0.20
2023-03-14T08:02:34.584Z,0.10
2023-03-14T08:03:28.560Z,0.10
2023-03-14T08:04:28.528Z,0.10
2023-03-14T08:05:34.512Z,0.10
2023-03-14T08:06:28.655Z,0.10
2023-03-14T08:07:28.532Z,0.10
2023-03-14T08:08:28.692Z,0.10
2023-03-14T08:09:34.470Z,0.10
2023-03-14T08:10:28.662Z,0.20
2023-03-14T08:11:28.639Z,0.10
2023-03-14T08:12:28.441Z,0.10
2023-03-14T08:13:28.413Z,0.10
2023-03-14T08:14:34.424Z,0.10
2023-03-14T08:15:28.403Z,0.20
2023-03-14T08:16:28.679Z,0.10
2023-03-14T08:17:28.976Z,0.10
2023-03-14T08:18:30.428Z,0.10
2023-03-14T08:19:28.353Z,0.10
2023-03-14T08:20:28.354Z,0.10
2023-03-14T08:21:28.336Z,0.10
2023-03-14T08:22:28.334Z,0.10
2023-03-14T08:23:28.509Z,0.00
2023-03-14T08:24:28.305Z,0.10
2023-03-14T08:25:28.355Z,0.10
2023-03-14T08:26:28.287Z,0.10
2023-03-14T08:27:28.266Z,0.10
2023-03-14T08:28:28.274Z,0.10
2023-03-14T08:29:28.244Z,0.10
2023-03-14T08:30:34.295Z,0.10
2023-03-14T08:31:28.335Z,0.10
2023-03-14T08:32:28.277Z,0.10
2023-03-14T08:33:28.213Z,0.10
2023-03-14T08:34:34.203Z,0.10
2023-03-14T08:35:28.188Z,0.10
2023-03-14T08:36:28.262Z,0.10
2023-03-14T08:37:28.169Z,0.10
2023-03-14T08:38:28.158Z,0.10
2023-03-14T08:40:03.088Z,0.10
2023-03-14T08:41:02.868Z,0.10
2023-03-14T08:42:03.047Z,0.10
2023-03-14T08:43:02.830Z,0.10
2023-03-14T08:44:02.864Z,0.10
2023-03-14T08:45:03.019Z,0.10
2023-03-14T08:46:02.791Z,0.10
2023-03-14T08:47:02.882Z,0.10
2023-03-14T08:48:02.765Z,0.10
2023-03-14T08:49:08.774Z,0.10
2023-03-14T08:50:08.953Z,0.10
2023-03-14T08:51:02.738Z,0.10
2023-03-14T08:52:02.727Z,0.10
2023-03-14T08:53:02.741Z,0.10
2023-03-14T08:54:02.705Z,0.10
2023-03-14T08:55:08.733Z,0.10
2023-03-14T08:56:02.695Z,0.10
2023-03-14T08:57:02.683Z,0.10
2023-03-14T08:58:02.660Z,0.10
2023-03-14T08:59:02.658Z,0.10
2023-03-14T09:00:02.643Z,0.10
2023-03-14T09:01:02.695Z,0.10
2023-03-14T09:02:02.824Z,0.20
2023-03-14T09:03:02.667Z,0.10
2023-03-14T09:04:02.713Z,0.20
2023-03-14T09:05:02.591Z,0.10
2023-03-14T09:06:02.590Z,0.10
2023-03-14T09:07:04.628Z,0.20
2023-03-14T09:08:02.612Z,0.10
2023-03-14T09:09:02.555Z,0.20
2023-03-14T09:10:02.570Z,0.20
2023-03-14T09:11:02.542Z,0.10
2023-03-14T09:12:02.723Z,0.20
2023-03-14T09:13:02.506Z,0.20
2023-03-14T09:14:08.519Z,0.10
2023-03-14T09:15:02.494Z,0.20
2023-03-14T09:16:02.486Z,0.20
2023-03-14T09:17:02.476Z,0.10
2023-03-14T09:18:02.456Z,0.10
2023-03-14T09:19:08.660Z,0.10
2023-03-14T09:20:02.437Z,0.10
2023-03-14T09:21:02.444Z,0.10
2023-03-14T09:22:02.417Z,0.10
2023-03-14T09:23:02.434Z,0.10
2023-03-14T09:24:02.391Z,0.10
2023-03-14T09:25:02.390Z,0.20
2023-03-14T09:26:02.370Z,0.10
2023-03-14T09:27:02.404Z,0.10
2023-03-14T09:28:02.360Z,0.10
2023-03-14T09:29:02.346Z,0.10
2023-03-14T09:30:02.534Z,0.10
2023-03-14T09:31:02.328Z,0.20
2023-03-14T09:32:08.459Z,0.10
2023-03-14T09:33:02.392Z,0.20
2023-03-14T09:34:08.293Z,0.10
2023-03-14T09:35:02.304Z,0.10
2023-03-14T09:36:02.264Z,0.20
2023-03-14T09:37:02.262Z,0.20
2023-03-14T09:38:02.267Z,0.20
2023-03-14T09:39:02.240Z,0.20
2023-03-14T09:40:02.427Z,0.10
2023-03-14T09:41:02.218Z,0.20
2023-03-14T09:42:02.215Z,0.20
2023-03-14T09:43:02.440Z,0.10
2023-03-14T09:44:02.181Z,0.10
2023-03-14T09:45:02.374Z,0.20
2023-03-14T09:46:02.172Z,0.20
2023-03-14T09:47:02.160Z,0.20
2023-03-14T09:48:02.157Z,0.20
2023-03-14T09:49:02.136Z,0.10
2023-03-14T09:50:02.113Z,0.10
2023-03-14T09:51:02.113Z,0.10
2023-03-14T09:52:04.217Z,0.10
2023-03-14T09:53:08.121Z,0.10
2023-03-14T09:54:02.061Z,0.10
2023-03-14T09:55:02.062Z,0.20
2023-03-14T09:56:02.048Z,0.10
2023-03-14T09:57:02.044Z,0.10
2023-03-14T09:58:02.022Z,0.20
2023-03-14T09:59:02.239Z,0.10
2023-03-14T10:00:02.011Z,0.10
2023-03-14T10:01:04.176Z,0.10
2023-03-14T10:02:02.192Z,0.10
2023-03-14T10:03:01.985Z,0.10
2023-03-14T10:04:01.977Z,0.10
2023-03-14T10:05:06.793Z,0.10
2023-03-14T10:06:02.145Z,0.10
2023-03-14T10:07:04.334Z,0.10
2023-03-14T10:08:01.918Z,0.20
2023-03-14T10:09:01.915Z,0.10
2023-03-14T10:10:01.908Z,0.10
2023-03-14T10:11:01.901Z,0.10
2023-03-14T10:12:01.995Z,0.10
2023-03-14T10:13:01.930Z,0.10
2023-03-14T10:14:02.051Z,0.10
2023-03-14T10:15:01.876Z,0.10
2023-03-14T10:16:01.848Z,0.20
2023-03-14T10:17:01.965Z,0.10
2023-03-14T10:18:01.816Z,0.20
2023-03-14T10:19:01.804Z,0.20
2023-03-14T10:20:01.810Z,0.10
2023-03-14T10:21:01.792Z,0.20
2023-03-14T10:22:01.765Z,0.10
2023-03-14T10:23:01.770Z,0.20
2023-03-14T10:24:01.753Z,0.20
2023-03-14T10:25:07.753Z,0.20
2023-03-14T10:26:01.762Z,0.20
2023-03-14T10:27:01.725Z,0.40
2023-03-14T10:28:01.922Z,0.70
2023-03-14T10:29:01.704Z,0.70
2023-03-14T10:30:01.678Z,0.50
2023-03-14T10:31:01.796Z,0.60
2023-03-14T10:32:01.670Z,0.60
2023-03-14T10:33:01.755Z,0.40
2023-03-14T10:34:01.661Z,0.20
2023-03-14T10:35:01.639Z,0.50
2023-03-14T10:36:01.701Z,0.30
2023-03-14T10:37:01.623Z,0.50
2023-03-14T10:38:01.604Z,0.60
2023-03-14T10:39:01.602Z,0.30
2023-03-14T10:40:01.584Z,0.50
2023-03-14T10:41:01.581Z,0.40
2023-03-14T10:42:01.576Z,0.40
2023-03-14T10:43:01.571Z,0.40
2023-03-14T10:44:01.537Z,0.30
2023-03-14T10:45:01.546Z,0.50
2023-03-14T10:46:01.746Z,0.20
2023-03-14T10:47:01.565Z,0.30
2023-03-14T10:48:01.900Z,0.10
2023-03-14T10:49:01.497Z,0.10
2023-03-14T10:50:01.527Z,0.20
2023-03-14T10:51:01.477Z,0.20
2023-03-14T10:52:01.465Z,0.10
2023-03-14T10:53:03.035Z,0.30
2023-03-14T10:54:01.454Z,0.50
2023-03-14T10:55:01.446Z,0.10
2023-03-14T10:56:01.423Z,0.20
2023-03-14T10:57:01.468Z,0.10
2023-03-14T10:58:01.409Z,0.20
2023-03-14T10:59:01.398Z,0.20
2023-03-14T11:00:01.376Z,0.40
2023-03-14T11:01:01.396Z,0.70
2023-03-14T11:02:01.355Z,0.30
2023-03-14T11:03:01.409Z,0.60
2023-03-14T11:04:01.340Z,0.60
2023-03-14T11:05:01.383Z,226.80
2023-03-14T11:06:01.358Z,890.40
2023-03-14T11:07:01.310Z,903.70
2023-03-14T11:08:01.292Z,916.70
2023-03-14T11:09:07.305Z,999.90
2023-03-14T11:10:01.275Z,999.90
2023-03-14T11:11:03.320Z,924.50
2023-03-14T11:12:01.264Z,935.90
2023-03-14T11:13:01.242Z,944.59
2023-03-14T11:14:01.240Z,968.79
2023-03-14T11:15:01.219Z,990.29
2023-03-14T11:16:07.313Z,999.90
2023-03-14T11:17:01.204Z,999.90
2023-03-14T11:18:01.193Z,999.90
2023-03-14T11:19:01.275Z,999.90
2023-03-14T11:20:01.173Z,999.90
2023-03-14T11:21:01.159Z,999.90
2023-03-14T11:22:01.171Z,999.90
2023-03-14T11:23:01.136Z,999.90
2023-03-14T11:24:35.826Z,999.90
2023-03-14T11:25:37.856Z,999.90
2023-03-14T11:26:35.799Z,999.90
2023-03-14T11:27:35.802Z,999.90
2023-03-14T11:28:41.780Z,999.90
2023-03-14T11:29:35.972Z,999.90
2023-03-14T11:30:41.761Z,999.90
2023-03-14T11:31:36.076Z,999.90
2023-03-14T11:32:35.764Z,999.90
2023-03-14T11:33:35.735Z,999.90
2023-03-14T11:34:35.741Z,999.90
2023-03-14T11:35:35.804Z,999.90
2023-03-14T11:36:35.698Z,999.90
2023-03-14T11:37:35.692Z,999.90
2023-03-14T11:38:35.668Z,117.90
2023-03-14T11:39:35.674Z,0.60
2023-03-14T11:40:35.642Z,0.70
2023-03-14T11:41:35.646Z,0.50
2023-03-14T11:42:41.633Z,0.50
2023-03-14T11:43:35.620Z,0.40
2023-03-14T11:44:35.611Z,0.60
2023-03-14T11:45:35.599Z,0.50
2023-03-14T11:46:35.667Z,0.50
2023-03-14T11:47:35.594Z,0.60
2023-03-14T11:48:35.770Z,0.70
2023-03-14T11:49:35.762Z,0.50
2023-03-14T11:50:35.562Z,0.80
2023-03-14T11:51:35.541Z,0.50
2023-03-14T11:52:35.517Z,1.29
2023-03-14T11:53:35.926Z,1.10
2023-03-14T11:54:35.702Z,1.29
2023-03-14T11:55:35.493Z,1.00
2023-03-14T11:56:35.486Z,0.60
2023-03-14T11:57:35.472Z,1.20
2023-03-14T11:58:35.662Z,1.10
2023-03-14T11:59:35.459Z,0.60
2023-03-14T12:00:35.428Z,0.70
2023-03-14T12:01:43.482Z,0.50
2023-03-14T12:02:35.414Z,0.70
2023-03-14T12:03:35.471Z,0.50
2023-03-14T12:04:35.396Z,0.50
2023-03-14T12:05:41.549Z,0.50
2023-03-14T12:06:35.846Z,1.10
2023-03-14T12:07:41.366Z,0.90
2023-03-14T12:08:35.550Z,1.20
2023-03-14T12:09:35.345Z,1.20
2023-03-14T12:10:35.326Z,1.20
2023-03-14T12:11:41.324Z,1.29
2023-03-14T12:12:35.504Z,1.29
2023-03-14T12:13:35.326Z,1.10
2023-03-14T12:14:35.302Z,1.10
2023-03-14T12:15:35.276Z,1.29
2023-03-14T12:16:35.286Z,0.90
2023-03-14T12:17:35.758Z,1.20
2023-03-14T12:18:41.253Z,1.10
2023-03-14T12:19:35.232Z,1.00
2023-03-14T12:20:35.633Z,0.90
2023-03-14T12:21:35.237Z,0.90
2023-03-14T12:22:35.204Z,0.90
2023-03-14T12:23:35.192Z,0.80
2023-03-14T12:24:35.189Z,0.50
2023-03-14T12:25:35.174Z,1.00
2023-03-14T12:26:35.172Z,1.10
2023-03-14T12:27:35.146Z,1.00
2023-03-14T12:28:35.154Z,1.00
2023-03-14T12:29:35.134Z,0.90
2023-03-14T12:30:35.126Z,0.90
2023-03-14T12:31:35.247Z,1.00
2023-03-14T12:32:41.174Z,1.10
2023-03-14T12:33:35.099Z,1.20
2023-03-14T12:34:35.099Z,1.10
2023-03-14T12:35:35.094Z,1.10
2023-03-14T12:36:35.062Z,1.10
2023-03-14T12:37:35.171Z,0.90
2023-03-14T12:38:41.060Z,1.00
2023-03-14T12:39:35.030Z,1.20
2023-03-14T12:40:35.026Z,0.80
2023-03-14T12:41:35.008Z,0.70
2023-03-14T12:42:44.597Z,0.90
2023-03-14T12:43:38.096Z,0.60
2023-03-14T12:44:34.979Z,0.90
2023-03-14T12:45:35.079Z,0.70
2023-03-14T12:46:40.980Z,0.90
2023-03-14T12:47:34.973Z,0.70
2023-03-14T12:48:34.942Z,1.60
2023-03-14T12:49:34.937Z,0.50
2023-03-14T12:50:40.939Z,0.50
2023-03-14T12:51:34.924Z,1.00
2023-03-14T12:52:36.969Z,0.80
2023-03-14T12:53:35.121Z,0.40
2023-03-14T12:54:34.888Z,0.70
2023-03-14T12:55:34.875Z,0.40
2023-03-14T12:56:34.866Z,0.50
2023-03-14T12:57:34.846Z,0.40
2023-03-14T12:58:34.850Z,0.80
2023-03-14T12:59:34.828Z,0.60
2023-03-14T13:00:34.819Z,0.70
2023-03-14T13:01:34.898Z,0.50
2023-03-14T13:02:34.809Z,0.60
2023-03-14T13:03:34.805Z,1.00
2023-03-14T13:04:39.586Z,0.70
2023-03-14T13:05:34.764Z,0.60
2023-03-14T13:06:34.771Z,0.50
2023-03-14T13:07:34.741Z,0.80
2023-03-14T13:08:34.737Z,0.90
2023-03-14T13:09:34.883Z,0.50
2023-03-14T13:10:38.285Z,0.50
2023-03-14T13:11:34.701Z,0.80
2023-03-14T13:12:34.695Z,0.70
2023-03-14T13:13:34.672Z,0.60
2023-03-14T13:14:34.671Z,0.60
2023-03-14T13:15:40.692Z,0.50
2023-03-14T13:16:34.909Z,0.50
2023-03-14T13:17:37.558Z,0.60
2023-03-14T13:18:34.640Z,0.60
2023-03-14T13:20:09.385Z,0.40
2023-03-14T13:21:09.312Z,0.40
2023-03-14T13:22:10.531Z,0.60
2023-03-14T13:23:09.287Z,0.40
2023-03-14T13:24:09.275Z,0.60
2023-03-14T13:25:09.292Z,0.60
2023-03-14T13:26:09.250Z,0.50
2023-03-14T13:27:15.251Z,0.70
2023-03-14T13:28:09.224Z,0.80
2023-03-14T13:29:09.257Z,0.80
2023-03-14T13:30:09.268Z,0.70
2023-03-14T13:31:09.257Z,1.39
2023-03-14T13:32:09.192Z,0.80
2023-03-14T13:33:09.256Z,1.00
2023-03-14T13:34:09.190Z,0.90
2023-03-14T13:35:09.168Z,0.80
2023-03-14T13:36:09.210Z,1.00
2023-03-14T13:37:09.347Z,0.90
2023-03-14T13:38:12.291Z,1.10
2023-03-14T13:39:09.122Z,0.90
2023-03-14T13:40:09.227Z,1.00
2023-03-14T13:41:09.326Z,0.80
2023-03-14T13:42:09.084Z,0.80
2023-03-14T13:43:09.113Z,0.80
2023-03-14T13:44:09.068Z,0.50
2023-03-14T13:45:09.065Z,0.50
2023-03-14T13:46:09.069Z,0.50
2023-03-14T13:47:09.051Z,0.70
2023-03-14T13:48:09.022Z,1.20
2023-03-14T13:49:09.025Z,0.80
2023-03-14T13:50:09.019Z,0.90
2023-03-14T13:51:09.000Z,0.70
2023-03-14T13:52:08.993Z,0.90
2023-03-14T13:53:08.980Z,0.80
2023-03-14T13:54:09.174Z,0.80
2023-03-14T13:55:10.963Z,1.00
2023-03-14T13:56:09.151Z,0.80
2023-03-14T13:57:08.977Z,0.70
2023-03-14T13:58:08.935Z,0.90
2023-03-14T13:59:09.128Z,0.70
2023-03-14T14:00:09.016Z,0.60
2023-03-14T14:01:08.948Z,0.70
2023-03-14T14:02:08.899Z,0.80
2023-03-14T14:03:43.599Z,0.30
2023-03-14T14:04:43.639Z,0.40
2023-03-14T14:05:43.562Z,0.60
2023-03-14T14:06:43.555Z,0.60
2023-03-14T14:07:43.533Z,0.50
2023-03-14T14:08:49.545Z,0.50
2023-03-14T14:09:43.734Z,0.50
2023-03-14T14:10:43.518Z,0.70
2023-03-14T14:11:51.045Z,0.50
2023-03-14T14:12:44.841Z,0.50
2023-03-14T14:13:43.677Z,0.40
2023-03-14T14:14:43.470Z,0.40
2023-03-14T14:15:43.488Z,0.50
2023-03-14T14:16:43.453Z,0.50
2023-03-14T14:17:43.433Z,0.40
2023-03-14T14:18:43.434Z,0.30
2023-03-14T14:19:43.407Z,0.50
2023-03-14T14:20:45.305Z,0.40
2023-03-14T14:21:43.396Z,0.50
2023-03-14T14:22:43.389Z,0.70
2023-03-14T14:23:43.383Z,0.50
2023-03-14T14:24:43.380Z,0.70
2023-03-14T14:25:43.357Z,1.50
2023-03-14T14:26:43.357Z,1.10
2023-03-14T14:27:43.329Z,1.29
2023-03-14T14:28:43.364Z,1.79
2023-03-14T14:29:43.313Z,0.70
2023-03-14T14:30:43.535Z,0.50
2023-03-14T14:31:43.389Z,0.70
2023-03-14T14:32:43.304Z,0.80
2023-03-14T14:33:43.270Z,0.70
2023-03-14T14:34:43.264Z,0.80
2023-03-14T14:35:43.351Z,0.90
2023-03-14T14:36:43.247Z,0.80
2023-03-14T14:37:43.235Z,0.80
2023-03-14T14:38:43.231Z,0.60
2023-03-14T14:39:43.216Z,0.70
2023-03-14T14:40:43.202Z,0.70
2023-03-14T14:41:43.188Z,0.60
2023-03-14T14:42:43.182Z,0.50
2023-03-14T14:43:43.182Z,0.80
2023-03-14T14:44:43.192Z,0.70
2023-03-14T14:45:43.154Z,0.60
2023-03-14T14:46:43.146Z,0.50
2023-03-14T14:47:43.340Z,0.50
2023-03-14T14:48:43.317Z,0.60
2023-03-14T14:49:43.114Z,0.70
2023-03-14T14:50:49.119Z,0.80
2023-03-14T14:51:43.088Z,0.60
2023-03-14T14:52:43.080Z,0.70
2023-03-14T14:53:43.089Z,0.50
2023-03-14T14:54:43.073Z,0.60
2023-03-14T14:55:43.052Z,0.60
2023-03-14T14:56:43.037Z,0.50
2023-03-14T14:57:43.034Z,0.50
2023-03-14T14:58:43.018Z,0.40
2023-03-14T14:59:43.013Z,0.60
2023-03-14T15:00:43.063Z,0.50
2023-03-14T15:01:43.051Z,0.50
2023-03-14T15:02:43.187Z,0.50
2023-03-14T15:03:42.969Z,0.50
2023-03-14T15:04:42.950Z,0.60
2023-03-14T15:05:42.958Z,0.50
2023-03-14T15:06:48.949Z,0.50
2023-03-14T15:07:42.947Z,0.50
2023-03-14T15:08:42.904Z,0.40
2023-03-14T15:09:42.913Z,0.50
2023-03-14T15:10:45.011Z,0.50
2023-03-14T15:11:42.876Z,0.40
2023-03-14T15:12:42.881Z,0.50
2023-03-14T15:13:42.861Z,0.50
2023-03-14T15:14:42.849Z,0.40
2023-03-14T15:15:42.854Z,0.50
2023-03-14T15:16:42.958Z,0.50
2023-03-14T15:17:42.819Z,0.50
2023-03-14T15:18:42.821Z,0.50
2023-03-14T15:19:42.799Z,0.50
2023-03-14T15:20:42.794Z,0.50
2023-03-14T15:21:42.774Z,0.60
2023-03-14T15:22:42.775Z,0.60
2023-03-14T15:23:42.750Z,0.40
2023-03-14T15:24:42.761Z,0.40
2023-03-14T15:25:55.068Z,0.50
2023-03-14T15:26:43.776Z,0.40
2023-03-14T15:27:42.706Z,0.60
2023-03-14T15:28:42.706Z,0.60
2023-03-14T15:29:42.694Z,0.50
2023-03-14T15:30:42.688Z,0.50
2023-03-14T15:31:42.706Z,0.50
2023-03-14T15:32:42.934Z,0.50
2023-03-14T15:33:48.659Z,0.40
2023-03-14T15:34:42.654Z,0.60
2023-03-14T15:35:42.733Z,0.30
2023-03-14T15:36:48.639Z,0.50
2023-03-14T15:37:42.602Z,0.80
2023-03-14T15:38:42.801Z,0.40
2023-03-14T15:39:42.581Z,0.70
2023-03-14T15:40:42.578Z,0.40
2023-03-14T15:41:42.591Z,0.50
2023-03-14T15:42:42.556Z,0.40
2023-03-14T15:43:48.558Z,0.40
2023-03-14T15:44:42.547Z,1.00
2023-03-14T15:45:42.730Z,0.60
2023-03-14T15:46:42.528Z,0.60
2023-03-14T15:47:42.500Z,0.40
2023-03-14T15:48:42.521Z,0.60
2023-03-14T15:49:48.489Z,0.60
2023-03-14T15:50:42.477Z,0.50
2023-03-14T15:51:42.472Z,0.50
2023-03-14T15:52:48.463Z,0.60
2023-03-14T15:53:42.435Z,0.50
2023-03-14T15:54:42.443Z,0.60
2023-03-14T15:55:42.421Z,0.50
2023-03-14T15:56:42.421Z,0.50
2023-03-14T15:57:48.406Z,0.40
2023-03-14T15:58:42.406Z,0.70
2023-03-14T15:59:42.439Z,0.50
2023-03-14T16:00:48.485Z,0.50
2023-03-14T16:01:42.359Z,0.50
2023-03-14T16:02:48.355Z,0.60
2023-03-14T16:03:42.342Z,0.50
2023-03-14T16:04:42.499Z,0.50
2023-03-14T16:05:42.309Z,0.60
2023-03-14T16:06:42.334Z,0.50
2023-03-14T16:07:42.300Z,0.50
2023-03-14T16:08:42.293Z,0.70
2023-03-14T16:09:42.263Z,0.50
2023-03-14T16:10:42.257Z,0.40
2023-03-14T16:11:42.249Z,0.40
2023-03-14T16:12:42.255Z,0.40
2023-03-14T16:13:42.222Z,0.50
2023-03-14T16:14:42.232Z,0.40
2023-03-14T16:15:42.220Z,0.50
2023-03-14T16:16:42.237Z,0.50
2023-03-14T16:17:42.186Z,0.50
2023-03-14T16:18:42.182Z,0.60
2023-03-14T16:19:42.171Z,0.60
2023-03-14T16:20:48.131Z,0.90
2023-03-14T16:21:43.192Z,0.90
2023-03-14T16:22:42.135Z,0.70
2023-03-14T16:23:42.177Z,0.90
2023-03-14T16:24:42.322Z,0.90
2023-03-14T16:25:42.094Z,1.29
2023-03-14T16:26:42.097Z,0.80
2023-03-14T16:27:42.074Z,0.80
2023-03-14T16:28:42.079Z,0.80
2023-03-14T16:29:48.065Z,0.50
2023-03-14T16:30:42.052Z,0.70
2023-03-14T16:31:42.223Z,0.80
2023-03-14T16:32:42.125Z,0.70
2023-03-14T16:33:42.028Z,0.80
2023-03-14T16:34:48.016Z,0.60
2023-03-14T16:35:41.998Z,0.70
2023-03-14T16:36:42.025Z,0.50
2023-03-14T16:37:42.177Z,0.60
2023-03-14T16:38:48.200Z,0.60
2023-03-14T16:40:10.471Z,0.70
2023-03-14T16:40:42.989Z,0.70
2023-03-14T16:41:41.964Z,0.60
2023-03-14T16:43:05.271Z,0.60
2023-03-14T16:43:42.975Z,0.50
2023-03-14T16:44:41.907Z,0.60
2023-03-14T16:45:48.164Z,0.90
2023-03-14T16:46:42.121Z,0.60
2023-03-14T16:47:41.866Z,0.50
2023-03-14T16:48:41.865Z,0.60
2023-03-14T16:49:41.863Z,0.60
2023-03-14T16:50:41.867Z,0.50
2023-03-14T16:51:41.824Z,0.60
2023-03-14T16:52:41.893Z,0.50
2023-03-14T16:53:41.826Z,0.60
2023-03-14T16:54:41.817Z,0.60
2023-03-14T16:55:41.792Z,0.60
2023-03-14T16:56:41.787Z,0.50
2023-03-14T16:57:41.785Z,0.60
2023-03-14T16:58:41.840Z,1.10
2023-03-14T16:59:41.748Z,0.50
2023-03-14T17:01:16.632Z,1.10
2023-03-14T17:02:16.533Z,1.00
2023-03-14T17:03:16.532Z,0.50
2023-03-14T17:04:16.567Z,0.70
2023-03-14T17:05:16.499Z,0.50
2023-03-14T17:06:16.498Z,0.70
2023-03-14T17:07:18.539Z,0.60
2023-03-14T17:08:16.515Z,0.60
2023-03-14T17:09:16.669Z,0.90
2023-03-14T17:10:22.462Z,0.60
2023-03-14T17:11:16.447Z,0.50
2023-03-14T17:12:16.620Z,0.60
2023-03-14T17:13:16.428Z,0.70
2023-03-14T17:14:16.404Z,0.70
2023-03-14T17:15:16.627Z,0.90
2023-03-14T17:16:16.462Z,0.90
2023-03-14T17:17:16.376Z,0.80
2023-03-14T17:18:16.361Z,1.00
2023-03-14T17:19:16.357Z,0.70